createdAt,value
2019-04-20T00:01:05.339Z,10.87
2019-04-20T00:03:38.327Z,11.87
2019-04-20T00:06:03.635Z,10.80
2019-04-20T00:08:34.843Z,11.07
2019-04-20T00:11:08.776Z,10.97
2019-04-20T00:13:45.373Z,11.03
2019-04-20T00:16:04.154Z,10.83
2019-04-20T00:18:38.452Z,11.20
2019-04-20T00:21:24.878Z,11.87
2019-04-20T00:23:56.606Z,11.13
2019-04-20T00:27:00.651Z,11.50
2019-04-20T00:29:17.698Z,12.07
2019-04-20T00:31:47.785Z,12.00
2019-04-20T00:34:11.258Z,11.73
2019-04-20T00:36:30.742Z,11.73
2019-04-20T00:39:02.739Z,12.03
2019-04-20T00:41:29.734Z,11.77
2019-04-20T00:44:06.165Z,11.27
2019-04-20T00:46:35.714Z,11.23
2019-04-20T00:49:06.851Z,11.10
2019-04-20T00:51:45.539Z,11.67
2019-04-20T00:53:59.232Z,12.10
2019-04-20T00:56:28.837Z,11.67
2019-04-20T00:59:08.271Z,11.00
2019-04-20T01:01:47.470Z,10.90
2019-04-20T01:04:17.554Z,11.60
2019-04-20T01:06:50.077Z,11.97
2019-04-20T01:09:45.466Z,11.23
2019-04-20T01:12:18.168Z,10.37
2019-04-20T01:14:50.220Z,9.57
2019-04-20T01:17:14.706Z,10.60
2019-04-20T01:19:42.744Z,11.07
2019-04-20T01:22:15.875Z,10.57
2019-04-20T01:24:45.375Z,10.30
2019-04-20T01:27:23.741Z,10.33
2019-04-20T01:29:46.768Z,10.13
2019-04-20T01:32:20.968Z,10.43
2019-04-20T01:34:52.460Z,10.10
2019-04-20T01:37:26.177Z,10.50
2019-04-20T01:39:48.049Z,10.83
2019-04-20T01:42:10.960Z,10.40
2019-04-20T01:44:43.757Z,10.30
2019-04-20T01:47:11.411Z,10.63
2019-04-20T01:49:40.741Z,10.60
2019-04-20T01:52:17.320Z,10.97
2019-04-20T01:54:56.690Z,10.17
2019-04-20T01:57:29.995Z,10.20
2019-04-20T02:00:06.719Z,10.53
2019-04-20T02:02:44.860Z,10.13
2019-04-20T02:05:17.114Z,10.13
2019-04-20T02:07:45.444Z,9.83
2019-04-20T02:10:15.146Z,10.03
2019-04-20T02:12:49.009Z,10.63
2019-04-20T02:15:23.077Z,9.90
2019-04-20T02:18:20.519Z,9.93
2019-04-20T02:20:56.368Z,10.37
2019-04-20T02:23:31.795Z,11.23
2019-04-20T02:25:52.255Z,10.60
2019-04-20T02:28:37.416Z,10.47
2019-04-20T02:31:53.051Z,10.57
2019-04-20T02:34:19.848Z,11.33
2019-04-20T02:36:58.258Z,11.60
2019-04-20T02:42:34.047Z,10.30
2019-04-20T02:47:37.534Z,10.03
2019-04-20T02:52:50.596Z,10.50
2019-04-20T02:55:02.175Z,11.30
2019-04-20T02:57:33.930Z,10.53
2019-04-20T03:02:16.734Z,11.00
2019-04-20T03:04:37.097Z,11.43
2019-04-20T03:07:13.156Z,10.93
2019-04-20T03:10:06.065Z,11.63
2019-04-20T03:12:38.857Z,11.47
2019-04-20T03:15:04.623Z,11.23
2019-04-20T03:17:39.089Z,11.43
2019-04-20T03:20:03.325Z,11.73
2019-04-20T03:23:05.198Z,12.53
2019-04-20T03:25:17.913Z,12.60
2019-04-20T03:27:51.738Z,12.60
2019-04-20T03:31:33.350Z,13.17
2019-04-20T03:33:44.606Z,12.30
2019-04-20T03:36:10.318Z,11.90
2019-04-20T03:38:30.187Z,13.03
2019-04-20T03:40:48.278Z,13.10
2019-04-20T03:43:07.647Z,12.70
2019-04-20T03:45:45.956Z,13.60
2019-04-20T03:48:21.261Z,12.67
2019-04-20T03:50:56.442Z,12.83
2019-04-20T03:53:29.916Z,13.40
2019-04-20T03:56:35.162Z,12.87
2019-04-20T03:59:03.232Z,13.30
2019-04-20T04:02:07.469Z,13.17
2019-04-20T04:04:34.392Z,13.87
2019-04-20T04:06:49.535Z,13.70
2019-04-20T04:09:24.805Z,13.37
2019-04-20T04:11:55.064Z,13.10
2019-04-20T04:14:13.515Z,14.00
2019-04-20T04:16:47.392Z,13.27
2019-04-20T04:19:20.768Z,12.87
2019-04-20T04:22:15.838Z,13.93
2019-04-20T04:24:44.808Z,13.87
2019-04-20T04:27:15.096Z,14.53
2019-04-20T04:29:50.883Z,14.47
2019-04-20T04:32:49.936Z,14.70
2019-04-20T04:34:52.750Z,13.83
2019-04-20T04:37:45.890Z,13.13
2019-04-20T04:40:27.837Z,13.30
2019-04-20T04:42:46.818Z,13.63
2019-04-20T04:45:01.677Z,12.70
2019-04-20T04:47:26.319Z,13.00
2019-04-20T04:50:05.785Z,12.93
2019-04-20T04:52:32.061Z,13.73
2019-04-20T04:55:16.213Z,13.33
2019-04-20T04:57:28.505Z,12.73
2019-04-20T04:59:57.357Z,12.83
2019-04-20T05:02:32.516Z,13.70
2019-04-20T05:05:35.799Z,13.40
2019-04-20T05:08:01.926Z,12.73
2019-04-20T05:10:20.923Z,12.83
2019-04-20T05:12:51.284Z,12.27
2019-04-20T05:15:32.531Z,11.90
2019-04-20T05:18:05.814Z,12.33
2019-04-20T05:20:41.738Z,12.67
2019-04-20T05:23:31.922Z,12.30
2019-04-20T05:26:25.028Z,12.13
2019-04-20T05:28:48.620Z,10.80
2019-04-20T05:31:11.373Z,12.10
2019-04-20T05:34:20.305Z,10.83
2019-04-20T05:36:50.593Z,10.73
2019-04-20T05:39:29.805Z,10.73
2019-04-20T05:41:45.315Z,10.87
2019-04-20T05:44:20.982Z,10.80
2019-04-20T05:47:01.068Z,11.03
2019-04-20T05:49:31.196Z,10.63
2019-04-20T05:52:10.454Z,9.80
2019-04-20T05:54:32.540Z,9.73
2019-04-20T05:57:17.213Z,9.13
2019-04-20T05:59:47.068Z,10.57
2019-04-20T06:02:14.049Z,9.10
2019-04-20T06:04:54.572Z,9.67
2019-04-20T06:07:11.316Z,9.57
2019-04-20T06:09:42.947Z,8.87
2019-04-20T06:15:06.824Z,8.87
2019-04-20T06:17:53.170Z,8.83
2019-04-20T06:20:37.924Z,8.27
2019-04-20T06:23:11.962Z,8.13
2019-04-20T06:28:16.087Z,8.43
2019-04-20T06:30:45.284Z,8.13
2019-04-20T06:37:23.436Z,7.63
2019-04-20T06:40:29.307Z,7.90
2019-04-20T06:43:05.138Z,8.07
2019-04-20T06:46:05.085Z,8.10
2019-04-20T06:48:36.731Z,7.47
2019-04-20T06:50:53.859Z,7.93
2019-04-20T06:53:36.940Z,7.63
2019-04-20T06:56:33.646Z,7.50
2019-04-20T06:58:58.797Z,7.80
2019-04-20T07:01:25.089Z,7.37
2019-04-20T07:04:17.546Z,7.87
2019-04-20T07:06:45.267Z,7.40
2019-04-20T07:09:06.568Z,7.03
2019-04-20T07:11:35.855Z,6.90
2019-04-20T07:13:54.433Z,7.77
2019-04-20T07:16:53.167Z,6.77
2019-04-20T07:19:22.883Z,6.43
2019-04-20T07:22:23.114Z,6.73
2019-04-20T07:27:43.282Z,6.53
2019-04-20T07:30:29.655Z,6.17
2019-04-20T07:33:16.051Z,7.13
2019-04-20T07:35:44.866Z,6.10
2019-04-20T07:40:59.993Z,5.90
2019-04-20T07:44:03.418Z,6.03
2019-04-20T07:46:34.824Z,6.33
2019-04-20T07:49:12.715Z,6.53
2019-04-20T07:51:28.267Z,5.80
2019-04-20T07:54:37.513Z,5.77
2019-04-20T07:57:06.883Z,6.50
2019-04-20T07:59:52.796Z,5.33
2019-04-20T08:02:51.424Z,5.10
2019-04-20T08:05:15.502Z,5.50
2019-04-20T08:07:42.664Z,5.83
2019-04-20T08:10:36.538Z,5.17
2019-04-20T08:16:02.622Z,4.40
2019-04-20T08:18:56.624Z,4.23
2019-04-20T08:21:25.686Z,4.50
2019-04-20T08:23:54.158Z,4.80
2019-04-20T08:26:09.050Z,4.53
2019-04-20T08:29:14.693Z,4.23
2019-04-20T08:32:17.817Z,4.23
2019-04-20T08:34:56.011Z,4.97
2019-04-20T08:37:23.397Z,4.50
2019-04-20T08:42:28.602Z,4.20
2019-04-20T08:47:42.298Z,4.20
2019-04-20T08:50:48.493Z,4.10
2019-04-20T08:53:20.803Z,4.53
2019-04-20T08:55:46.525Z,4.70
2019-04-20T08:58:02.218Z,4.60
2019-04-20T09:00:35.964Z,4.30
2019-04-20T09:03:28.541Z,4.57
2019-04-20T09:06:31.283Z,4.20
2019-04-20T09:08:50.843Z,4.30
2019-04-20T09:11:38.486Z,4.20
2019-04-20T09:13:46.628Z,4.67
2019-04-20T09:16:10.973Z,3.90
2019-04-20T09:19:04.679Z,4.43
2019-04-20T09:21:38.755Z,4.50
2019-04-20T09:24:25.003Z,3.93
2019-04-20T09:26:50.581Z,4.10
2019-04-20T09:29:12.579Z,4.17
2019-04-20T09:31:47.122Z,3.93
2019-04-20T09:34:28.913Z,4.00
2019-04-20T09:37:01.129Z,4.00
2019-04-20T09:40:12.357Z,4.20
2019-04-20T09:42:38.058Z,4.13
2019-04-20T09:45:19.813Z,4.27
2019-04-20T09:47:45.894Z,4.40
2019-04-20T09:50:29.219Z,4.40
2019-04-20T09:52:59.143Z,4.43
2019-04-20T09:55:53.538Z,4.20
2019-04-20T09:58:32.069Z,4.63
2019-04-20T10:01:03.349Z,4.40
2019-04-20T10:03:18.861Z,4.03
2019-04-20T10:05:47.558Z,4.50
2019-04-20T10:08:15.956Z,4.50
2019-04-20T10:10:45.943Z,4.83
2019-04-20T10:13:15.314Z,4.73
2019-04-20T10:15:53.177Z,4.50
2019-04-20T10:18:45.537Z,4.57
2019-04-20T10:21:15.845Z,4.27
2019-04-20T10:23:59.005Z,4.20
2019-04-20T10:26:27.160Z,4.83
2019-04-20T10:28:55.330Z,4.00
2019-04-20T10:31:24.528Z,4.23
2019-04-20T10:34:13.547Z,4.13
2019-04-20T10:37:04.170Z,3.90
2019-04-20T10:39:38.623Z,4.17
2019-04-20T10:42:26.297Z,3.87
2019-04-20T10:44:57.077Z,4.10
2019-04-20T10:47:25.253Z,4.63
2019-04-20T10:49:58.807Z,4.40
2019-04-20T10:52:47.739Z,5.20
2019-04-20T10:55:16.549Z,4.80
2019-04-20T10:57:46.583Z,4.90
2019-04-20T11:00:20.028Z,5.00
2019-04-20T11:02:50.487Z,4.93
2019-04-20T11:05:38.309Z,5.00
2019-04-20T11:08:06.604Z,4.77
2019-04-20T11:10:51.134Z,4.63
2019-04-20T11:13:05.366Z,4.60
2019-04-20T11:15:39.285Z,4.77
2019-04-20T11:18:07.508Z,4.47
2019-04-20T11:20:35.742Z,5.03
2019-04-20T11:23:06.629Z,5.00
2019-04-20T11:25:39.769Z,4.30
2019-04-20T11:28:08.295Z,5.13
2019-04-20T11:30:38.299Z,4.53
2019-04-20T11:33:26.087Z,4.60
2019-04-20T11:36:01.629Z,4.90
2019-04-20T11:38:49.375Z,4.67
2019-04-20T11:41:25.480Z,4.77
2019-04-20T11:43:49.506Z,5.17
2019-04-20T11:46:18.623Z,5.23
2019-04-20T11:48:47.612Z,5.30
2019-04-20T11:51:15.873Z,5.23
2019-04-20T11:53:46.142Z,5.23
2019-04-20T11:56:22.455Z,5.33
2019-04-20T11:58:47.025Z,5.10
2019-04-20T12:01:44.079Z,4.50
2019-04-20T12:04:18.743Z,4.37
2019-04-20T12:06:38.865Z,4.30
2019-04-20T12:09:17.326Z,4.00
2019-04-20T12:11:59.640Z,4.03
2019-04-20T12:14:16.696Z,4.03
2019-04-20T12:16:47.838Z,4.20
2019-04-20T12:19:20.705Z,3.70
2019-04-20T12:21:49.659Z,4.13
2019-04-20T12:24:38.652Z,3.63
2019-04-20T12:27:07.034Z,3.83
2019-04-20T12:29:35.122Z,3.97
2019-04-20T12:32:19.613Z,4.03
2019-04-20T12:35:08.577Z,3.80
2019-04-20T12:37:36.958Z,3.50
2019-04-20T12:40:14.265Z,3.60
2019-04-20T12:42:44.955Z,3.77
2019-04-20T12:45:15.595Z,3.50
2019-04-20T12:47:48.213Z,4.30
2019-04-20T12:50:17.242Z,3.40
2019-04-20T12:52:46.233Z,4.13
2019-04-20T12:55:16.575Z,4.10
2019-04-20T12:57:46.930Z,3.70
2019-04-20T13:02:58.937Z,4.17
2019-04-20T13:05:27.720Z,3.80
2019-04-20T13:07:59.387Z,3.20
2019-04-20T13:10:27.522Z,3.00
2019-04-20T13:13:02.577Z,3.17
2019-04-20T13:16:00.516Z,2.67
2019-04-20T13:18:51.272Z,3.25
2019-04-20T13:21:39.172Z,3.15
2019-04-20T13:24:11.423Z,3.40
2019-04-20T13:26:40.675Z,2.90
2019-04-20T13:29:08.904Z,3.17
2019-04-20T13:31:37.954Z,2.90
2019-04-20T13:34:26.375Z,3.20
2019-04-20T13:37:00.065Z,2.92
2019-04-20T13:39:28.925Z,3.17
2019-04-20T13:42:22.905Z,3.57
2019-04-20T13:44:46.875Z,3.20
2019-04-20T13:47:16.845Z,3.40
2019-04-20T13:49:54.875Z,3.27
2019-04-20T13:52:23.076Z,3.00
2019-04-20T13:54:51.870Z,2.70
2019-04-20T13:57:28.181Z,3.00
2019-04-20T13:59:58.030Z,3.13
2019-04-20T14:02:36.631Z,3.17
2019-04-20T14:05:08.693Z,3.10
2019-04-20T14:07:39.588Z,2.77
2019-04-20T14:10:09.207Z,3.27
2019-04-20T14:12:48.805Z,2.98
2019-04-20T14:15:11.279Z,2.90
2019-04-20T14:17:39.504Z,3.30
2019-04-20T14:20:13.195Z,3.17
2019-04-20T14:22:41.010Z,3.50
2019-04-20T14:25:13.111Z,3.50
2019-04-20T14:27:42.584Z,3.55
2019-04-20T14:30:11.267Z,3.20
2019-04-20T14:32:39.330Z,3.33
2019-04-20T14:35:09.201Z,3.70
2019-04-20T14:37:45.951Z,3.57
2019-04-20T14:40:14.640Z,3.20
2019-04-20T14:42:49.477Z,2.93
2019-04-20T14:45:22.784Z,3.13
2019-04-20T14:47:51.918Z,2.97
2019-04-20T14:50:21.000Z,2.63
2019-04-20T14:52:49.362Z,2.67
2019-04-20T14:55:19.130Z,2.20
2019-04-20T14:57:47.808Z,2.40
2019-04-20T15:00:43.821Z,2.57
2019-04-20T15:03:30.363Z,2.42
2019-04-20T15:06:02.032Z,2.63
2019-04-20T15:08:32.483Z,2.83
2019-04-20T15:11:01.078Z,3.30
2019-04-20T15:13:31.402Z,2.10
2019-04-20T15:15:59.954Z,2.70
2019-04-20T15:18:33.603Z,2.20
2019-04-20T15:21:03.850Z,2.70
2019-04-20T15:23:33.195Z,2.20
2019-04-20T15:26:02.417Z,2.53
2019-04-20T15:28:30.802Z,2.77
2019-04-20T15:31:00.398Z,3.40
2019-04-20T15:33:28.678Z,2.80
2019-04-20T15:35:57.872Z,3.10
2019-04-20T15:38:27.139Z,2.50
2019-04-20T15:40:55.452Z,2.87
2019-04-20T15:43:27.477Z,2.70
2019-04-20T15:45:55.030Z,2.83
2019-04-20T15:48:23.855Z,3.30
2019-04-20T15:50:52.133Z,3.10
2019-04-20T15:53:21.802Z,3.20
2019-04-20T15:55:50.928Z,3.67
2019-04-20T15:58:20.615Z,3.27
2019-04-20T16:00:51.023Z,3.27
2019-04-20T16:03:29.644Z,3.30
2019-04-20T16:06:03.351Z,3.87
2019-04-20T16:08:38.848Z,3.87
2019-04-20T16:11:07.279Z,3.77
2019-04-20T16:13:39.582Z,3.77
2019-04-20T16:16:07.823Z,4.05
2019-04-20T16:18:36.996Z,4.30
2019-04-20T16:21:11.706Z,4.40
2019-04-20T16:24:01.247Z,4.43
2019-04-20T16:26:47.615Z,3.73
2019-04-20T16:29:15.820Z,4.27
2019-04-20T16:31:46.679Z,4.17
2019-04-20T16:34:15.567Z,4.73
2019-04-20T16:36:44.494Z,4.45
2019-04-20T16:39:14.288Z,4.43
2019-04-20T16:41:42.726Z,4.67
2019-04-20T16:44:11.314Z,4.80
2019-04-20T16:46:40.661Z,4.73
2019-04-20T16:49:08.890Z,4.73
2019-04-20T16:51:38.845Z,9.27
2019-04-20T16:54:07.789Z,6.73
2019-04-20T16:56:37.018Z,5.77
2019-04-20T16:59:09.653Z,4.90
2019-04-20T17:01:35.689Z,5.30
2019-04-20T17:04:09.809Z,5.17
2019-04-20T17:06:36.014Z,5.20
2019-04-20T17:09:07.016Z,5.67
2019-04-20T17:11:36.228Z,5.17
2019-04-20T17:14:06.645Z,6.10
2019-04-20T17:16:35.521Z,5.83
2019-04-20T17:19:03.880Z,7.07
2019-04-20T17:21:32.549Z,6.93
2019-04-20T17:24:02.025Z,7.50
2019-04-20T17:26:40.963Z,7.60
2019-04-20T17:29:15.768Z,8.57
2019-04-20T17:32:13.697Z,8.73
2019-04-20T17:34:58.196Z,8.50
2019-04-20T17:37:12.930Z,11.97
2019-04-20T17:40:04.318Z,8.10
2019-04-20T17:42:25.156Z,8.30
2019-04-20T17:44:53.044Z,8.57
2019-04-20T17:47:31.412Z,7.73
2019-04-20T17:50:00.878Z,7.50
2019-04-20T17:52:35.068Z,9.07
2019-04-20T17:54:51.450Z,9.13
2019-04-20T17:57:19.737Z,9.97
2019-04-20T17:59:57.947Z,11.60
2019-04-20T18:02:45.973Z,12.57
2019-04-20T18:05:34.121Z,12.50
2019-04-20T18:08:06.347Z,11.63
2019-04-20T18:10:34.259Z,10.77
2019-04-20T18:12:47.718Z,10.40
2019-04-20T18:15:32.453Z,11.03
2019-04-20T18:18:23.995Z,11.30
2019-04-20T18:21:08.590Z,17.70
2019-04-20T18:23:41.433Z,16.40
2019-04-20T18:26:27.687Z,16.10
2019-04-20T18:28:59.211Z,15.80
2019-04-20T18:31:13.581Z,16.93
2019-04-20T18:33:42.529Z,17.43
2019-04-20T18:36:23.347Z,18.50
2019-04-20T18:38:54.259Z,17.47
2019-04-20T18:41:23.080Z,17.20
2019-04-20T18:43:50.458Z,16.47
2019-04-20T18:46:31.838Z,16.43
2019-04-20T18:49:08.654Z,16.80
2019-04-20T18:51:15.487Z,15.80
2019-04-20T18:53:46.918Z,16.17
2019-04-20T18:56:19.026Z,14.43
2019-04-20T18:58:45.127Z,14.23
2019-04-20T19:01:14.734Z,15.30
2019-04-20T19:03:45.724Z,15.20
2019-04-20T19:06:14.152Z,16.10
2019-04-20T19:08:46.945Z,17.23
2019-04-20T19:11:17.751Z,18.87
2019-04-20T19:13:49.245Z,21.10
2019-04-20T19:16:49.602Z,22.17
2019-04-20T19:19:23.384Z,24.23
2019-04-20T19:21:41.550Z,24.10
2019-04-20T19:24:14.249Z,20.00
2019-04-20T19:26:47.916Z,18.80
2019-04-20T19:29:20.000Z,15.73
2019-04-20T19:31:56.927Z,13.47
2019-04-20T19:34:30.908Z,13.90
2019-04-20T19:36:58.156Z,14.13
2019-04-20T19:39:27.509Z,14.70
2019-04-20T19:41:51.734Z,15.17
2019-04-20T19:44:24.084Z,16.40
2019-04-20T19:47:05.378Z,16.77
2019-04-20T19:49:25.054Z,18.43
2019-04-20T19:52:13.629Z,19.43
2019-04-20T19:54:38.742Z,18.40
2019-04-20T19:56:58.526Z,18.77
2019-04-20T19:59:23.340Z,19.20
2019-04-20T20:01:42.321Z,18.00
2019-04-20T20:04:11.889Z,18.77
2019-04-20T20:06:46.026Z,18.70
2019-04-20T20:09:12.872Z,19.77
2019-04-20T20:11:44.446Z,19.53
2019-04-20T20:14:13.473Z,20.93
2019-04-20T20:16:59.822Z,20.97
2019-04-20T20:19:27.821Z,20.77
2019-04-20T20:22:00.392Z,22.50
2019-04-20T20:24:14.279Z,23.03
2019-04-20T20:26:50.572Z,22.23
2019-04-20T20:29:22.851Z,23.20
2019-04-20T20:32:01.434Z,21.70
2019-04-20T20:34:21.922Z,22.83
2019-04-20T20:36:47.322Z,24.07
2019-04-20T20:39:20.009Z,23.97
2019-04-20T20:41:52.885Z,23.60
2019-04-20T20:44:26.495Z,24.10
2019-04-20T20:46:55.905Z,25.20
2019-04-20T20:49:33.237Z,25.03
2019-04-20T20:52:05.862Z,25.90
2019-04-20T20:54:29.530Z,26.97
2019-04-20T20:56:49.958Z,29.87
2019-04-20T20:59:26.653Z,31.03
2019-04-20T21:01:52.433Z,29.73
2019-04-20T21:04:15.291Z,29.17
2019-04-20T21:06:44.630Z,27.33
2019-04-20T21:09:14.321Z,28.50
2019-04-20T21:11:44.484Z,28.33
2019-04-20T21:14:19.889Z,28.70
2019-04-20T21:16:54.669Z,29.50
2019-04-20T21:19:25.746Z,29.77
2019-04-20T21:21:50.375Z,31.17
2019-04-20T21:24:23.679Z,29.50
2019-04-20T21:26:53.846Z,32.43
2019-04-20T21:29:31.750Z,30.63
2019-04-20T21:31:59.917Z,31.47
2019-04-20T21:34:23.680Z,30.97
2019-04-20T21:36:55.308Z,31.30
2019-04-20T21:39:34.602Z,31.20
2019-04-20T21:41:57.242Z,31.63
2019-04-20T21:44:28.694Z,31.20
2019-04-20T21:46:54.593Z,31.07
2019-04-20T21:49:36.467Z,32.40
2019-04-20T21:51:58.582Z,31.27
2019-04-20T21:54:22.340Z,28.77
2019-04-20T21:56:57.152Z,32.55
2019-04-20T21:59:27.301Z,31.17
2019-04-20T22:01:58.487Z,33.13
2019-04-20T22:04:22.971Z,31.80
2019-04-20T22:06:52.024Z,32.17
2019-04-20T22:09:20.425Z,31.07
2019-04-20T22:11:51.808Z,32.67
2019-04-20T22:14:24.222Z,31.40
2019-04-20T22:16:53.280Z,33.07
2019-04-20T22:19:30.678Z,33.77
2019-04-20T22:22:03.346Z,30.70
2019-04-20T22:24:40.290Z,30.67
2019-04-20T22:27:03.090Z,31.07
2019-04-20T22:29:21.606Z,30.07
2019-04-20T22:31:56.436Z,29.77
2019-04-20T22:34:23.838Z,29.47
2019-04-20T22:36:50.569Z,30.07
2019-04-20T22:39:31.351Z,28.97
2019-04-20T22:42:00.233Z,30.73
2019-04-20T22:44:28.323Z,30.97
2019-04-20T22:46:56.326Z,29.80
2019-04-20T22:49:42.074Z,29.03
2019-04-20T22:52:02.783Z,28.70
2019-04-20T22:54:39.702Z,29.37
2019-04-20T22:57:05.958Z,30.37
2019-04-20T22:59:39.775Z,30.57
2019-04-20T23:02:00.573Z,30.70
2019-04-20T23:04:26.914Z,30.97
2019-04-20T23:06:55.845Z,32.50
2019-04-20T23:09:26.671Z,32.63
2019-04-20T23:12:03.599Z,34.13
2019-04-20T23:14:24.937Z,34.93
2019-04-20T23:16:55.569Z,36.37
2019-04-20T23:19:35.703Z,36.70
2019-04-20T23:21:59.739Z,37.73
2019-04-20T23:24:23.710Z,37.60
2019-04-20T23:26:53.169Z,37.10
2019-04-20T23:29:27.161Z,37.07
2019-04-20T23:31:57.441Z,37.93
2019-04-20T23:34:25.512Z,37.40
2019-04-20T23:36:52.557Z,37.63
2019-04-20T23:39:23.294Z,36.90
2019-04-20T23:41:57.039Z,36.70
2019-04-20T23:44:31.493Z,36.03
2019-04-20T23:47:19.787Z,35.53
2019-04-20T23:50:08.602Z,36.97
2019-04-20T23:52:43.144Z,36.50
2019-04-20T23:54:58.115Z,35.47
2019-04-20T23:57:21.843Z,35.83
2019-04-20T23:59:53.765Z,37.00
